Time;durP1;ratioP1;P1;durP2;ratioP2;P2;SDS_P1;SDS_P2;PMS_P1;PMS_P2;Temp;Humidity;BMP_temperature;BMP_pressure;BME280_temperature;BME280_humidity;BME280_pressure;Samples;Min_cycle;Max_cycle;Signal;HPM_P1;HPM_P2
2021/03/02 00:05:43;;;;;;;75.8;46.8;;;;;;;-1.76;100;100558.2;;;;
2021/03/02 00:15:41;;;;;;;67.7;48.4;;;;;;;-1.57;100;100558.6;;;;
2021/03/02 00:25:38;;;;;;;66.1;48.9;;;;;;;-1.42;100;100553.3;;;;
2021/03/02 00:35:36;;;;;;;52;41.6;;;;;;;-1.35;100;100559.5;;;;
2021/03/02 00:45:33;;;;;;;43.8;33.3;;;;;;;-1.36;100;100552.5;;;;
2021/03/02 00:55:31;;;;;;;56.8;44.2;;;;;;;-1.29;100;100539.4;;;;
2021/03/02 01:05:28;;;;;;;70.7;44.3;;;;;;;-1.21;100;100531.4;;;;
2021/03/02 01:15:25;;;;;;;55.8;41.2;;;;;;;-1.19;100;100516.1;;;;
2021/03/02 01:25:23;;;;;;;54.4;38.7;;;;;;;-1.21;100;100507.6;;;;
2021/03/02 01:35:20;;;;;;;54.5;33.5;;;;;;;-1.31;100;100507;;;;
2021/03/02 01:45:18;;;;;;;48.8;35.6;;;;;;;-1.47;100;100497.5;;;;
2021/03/02 01:55:15;;;;;;;40.4;32.5;;;;;;;-1.67;100;100491.1;;;;
2021/03/02 02:05:13;;;;;;;53.2;35.9;;;;;;;-1.6;100;100484.1;;;;
2021/03/02 02:15:10;;;;;;;62.5;41.2;;;;;;;-1.55;100;100461.4;;;;
2021/03/02 02:25:18;;;;;;;62.9;40;;;;;;;-1.54;100;100449;;;;
2021/03/02 02:35:05;;;;;;;40.7;32.5;;;;;;;-1.51;100;100448.6;;;;
2021/03/02 02:45:02;;;;;;;48.3;35.3;;;;;;;-1.62;100;100454.3;;;;
2021/03/02 02:55:00;;;;;;;46.6;35.4;;;;;;;-1.78;100;100442.1;;;;
2021/03/02 03:04:57;;;;;;;48.1;34.3;;;;;;;-1.98;100;100441;;;;
2021/03/02 03:14:54;;;;;;;46.3;38.5;;;;;;;-2.08;100;100436;;;;
2021/03/02 03:24:52;;;;;;;53.9;37.7;;;;;;;-2.11;100;100443.5;;;;
2021/03/02 03:34:49;;;;;;;51.2;36.8;;;;;;;-2.27;100;100452.4;;;;
2021/03/02 03:44:46;;;;;;;60.2;43.2;;;;;;;-2.4;100;100459.3;;;;
2021/03/02 03:54:43;;;;;;;42.9;35.7;;;;;;;-2.45;100;100467.7;;;;
2021/03/02 04:04:41;;;;;;;80.3;55.9;;;;;;;-2.21;100;100470.1;;;;
2021/03/02 04:14:38;;;;;;;79.1;60.8;;;;;;;-1.91;100;100452.5;;;;
2021/03/02 04:24:36;;;;;;;97.9;67.3;;;;;;;-1.76;100;100447.2;;;;
2021/03/02 04:34:33;;;;;;;106.5;66.5;;;;;;;-1.61;100;100450.7;;;;
2021/03/02 04:44:30;;;;;;;81;59.5;;;;;;;-1.73;100;100442.4;;;;
2021/03/02 04:54:28;;;;;;;72.1;45;;;;;;;-1.75;100;100444.4;;;;
2021/03/02 05:04:25;;;;;;;57.7;46.1;;;;;;;-1.81;100;100436.4;;;;
2021/03/02 05:14:22;;;;;;;58.4;45.4;;;;;;;-1.75;100;100452.3;;;;
2021/03/02 05:24:20;;;;;;;65.1;46.6;;;;;;;-1.89;100;100450.5;;;;
2021/03/02 05:34:17;;;;;;;65.8;47.4;;;;;;;-1.93;100;100453.7;;;;
2021/03/02 05:44:15;;;;;;;81.8;52.1;;;;;;;-1.94;100;100449.4;;;;
2021/03/02 05:54:12;;;;;;;85.2;65.6;;;;;;;-1.97;100;100463;;;;
2021/03/02 06:04:13;;;;;;;83.9;58.9;;;;;;;-1.7;100;100446.5;;;;
2021/03/02 06:14:07;;;;;;;75.1;54.1;;;;;;;-1.68;100;100445.3;;;;
2021/03/02 06:24:04;;;;;;;78.4;60.6;;;;;;;-1.62;100;100457;;;;
2021/03/02 06:34:02;;;;;;;82.9;67.6;;;;;;;-1.51;100;100440.7;;;;
2021/03/02 06:43:59;;;;;;;99.6;66.9;;;;;;;-1.05;100;100455.3;;;;
2021/03/02 06:53:56;;;;;;;98.7;69.1;;;;;;;-0.88;100;100452.4;;;;
2021/03/02 07:03:54;;;;;;;101.7;70.4;;;;;;;-0.83;100;100458;;;;
2021/03/02 07:13:52;;;;;;;107.5;70.5;;;;;;;-0.73;100;100458.5;;;;
2021/03/02 07:23:49;;;;;;;95.2;62.2;;;;;;;-0.62;100;100445.5;;;;
2021/03/02 07:33:48;;;;;;;92.5;68.8;;;;;;;-0.52;100;100443.4;;;;
2021/03/02 07:43:44;;;;;;;91.7;66.9;;;;;;;-0.12;100;100441.9;;;;
2021/03/02 07:53:42;;;;;;;112.5;77.4;;;;;;;-0.09;100;100452.1;;;;
2021/03/02 08:03:39;;;;;;;107.8;72.3;;;;;;;0.04;100;100455.8;;;;
2021/03/02 08:13:39;;;;;;;110.5;80.2;;;;;;;0.35;100;100464.2;;;;
2021/03/02 08:23:52;;;;;;;78.7;63.4;;;;;;;0.47;100;100457.3;;;;
2021/03/02 08:33:32;;;;;;;108.4;78.1;;;;;;;0.49;100;100460.6;;;;
2021/03/02 08:43:30;;;;;;;98.2;70.2;;;;;;;0.85;100;100453.2;;;;
2021/03/02 08:53:28;;;;;;;82.3;61.6;;;;;;;0.98;100;100455.1;;;;
2021/03/02 09:03:25;;;;;;;89.4;64.3;;;;;;;1.61;100;100472.4;;;;
2021/03/02 09:13:23;;;;;;;77.8;60.3;;;;;;;2.27;100;100475.8;;;;
2021/03/02 09:23:21;;;;;;;88.9;69.1;;;;;;;2.53;100;100467.8;;;;
2021/03/02 09:33:19;;;;;;;101.8;73.9;;;;;;;2.39;100;100462.7;;;;
2021/03/02 09:43:17;;;;;;;88.7;61.8;;;;;;;2.78;100;100469.8;;;;
2021/03/02 09:53:15;;;;;;;82.8;60.9;;;;;;;3.35;98.77832;100474.2;;;;
2021/03/02 10:03:13;;;;;;;62.7;53.1;;;;;;;3.68;94.71484;100493.5;;;;
2021/03/02 10:13:10;;;;;;;76.3;50.3;;;;;;;4.23;89.77734;100493.7;;;;
2021/03/02 10:23:08;;;;;;;53.8;44.5;;;;;;;4.97;87.625;100467.6;;;;
2021/03/02 10:33:07;;;;;;;66.5;44.7;;;;;;;5.64;85.40137;100475.5;;;;
2021/03/02 10:43:05;;;;;;;57;43.4;;;;;;;6.04;83.44238;100453.2;;;;
2021/03/02 10:53:03;;;;;;;50.4;37.5;;;;;;;6.69;81.62598;100431.6;;;;
2021/03/02 11:03:01;;;;;;;43.2;32.4;;;;;;;7.12;79.53711;100420.4;;;;
2021/03/02 11:13:00;;;;;;;62.4;42.5;;;;;;;7.2;79.46289;100425.4;;;;
2021/03/02 11:22:58;;;;;;;52.2;41.1;;;;;;;7.62;77.91602;100412.5;;;;
2021/03/02 11:32:57;;;;;;;53.5;41.7;;;;;;;8.07;76.53906;100407.8;;;;
2021/03/02 11:42:56;;;;;;;48.7;38.5;;;;;;;8.3;75.35352;100408.7;;;;
2021/03/02 11:52:54;;;;;;;49;37.5;;;;;;;8.84;74.16699;100389;;;;
2021/03/02 12:02:52;;;;;;;43;35.9;;;;;;;9.37;72.30859;100385.4;;;;
2021/03/02 12:12:51;;;;;;;43.9;35.7;;;;;;;9.52;70.80078;100380.2;;;;
2021/03/02 12:22:50;;;;;;;39.4;34.3;;;;;;;9.71;69.62207;100371.7;;;;
2021/03/02 12:32:48;;;;;;;44.3;33.8;;;;;;;9.99;68.90137;100380.3;;;;
2021/03/02 12:42:47;;;;;;;38.2;29.2;;;;;;;10.27;67.10059;100362.2;;;;
2021/03/02 12:52:46;;;;;;;28.7;23.5;;;;;;;10.49;65.04199;100346.6;;;;
2021/03/02 13:02:45;;;;;;;31.2;22.8;;;;;;;10.77;64.27734;100337.3;;;;
2021/03/02 13:12:44;;;;;;;37.4;20.5;;;;;;;10.95;62.84277;100343;;;;
2021/03/02 13:22:42;;;;;;;32.5;19.7;;;;;;;11.09;62.06934;100335.2;;;;
2021/03/02 13:32:42;;;;;;;23.2;19.1;;;;;;;11.21;61.54102;100335.7;;;;
2021/03/02 13:42:40;;;;;;;26;21.4;;;;;;;11.41;61.64941;100322.3;;;;
2021/03/02 13:52:39;;;;;;;21.2;17.3;;;;;;;11.59;61.71973;100304.7;;;;
2021/03/02 14:02:40;;;;;;;32.1;21.2;;;;;;;11.61;60.71094;100297.1;;;;
2021/03/02 14:12:38;;;;;;;28.2;19.8;;;;;;;11.75;61.26465;100279.3;;;;
2021/03/02 14:22:39;;;;;;;28.1;21.1;;;;;;;11.83;60.65137;100278.8;;;;
2021/03/02 14:32:38;;;;;;;25.3;19.9;;;;;;;11.76;60.40234;100294.4;;;;
2021/03/02 14:42:34;;;;;;;34.5;21;;;;;;;11.76;60.4248;100285.5;;;;
2021/03/02 14:52:33;;;;;;;28.4;21.6;;;;;;;11.63;60.09961;100276;;;;
2021/03/02 15:02:32;;;;;;;33.8;23.3;;;;;;;11.58;60.62793;100268;;;;
2021/03/02 15:12:31;;;;;;;31.1;21.7;;;;;;;11.4;61.20508;100269.3;;;;
2021/03/02 15:22:31;;;;;;;28.9;20.2;;;;;;;11.19;61.40039;100258.8;;;;
2021/03/02 15:32:29;;;;;;;32.6;20.3;;;;;;;10.88;62.96777;100252.6;;;;
2021/03/02 15:42:28;;;;;;;35.8;22.1;;;;;;;10.57;64.60059;100241;;;;
2021/03/02 15:52:26;;;;;;;26.9;22.2;;;;;;;10.19;65.21094;100244.9;;;;
2021/03/02 16:02:26;;;;;;;27.4;19.9;;;;;;;9.85;66.29102;100231;;;;
2021/03/02 16:12:24;;;;;;;41.6;28.2;;;;;;;9.41;67.36426;100235.9;;;;
2021/03/02 16:22:23;;;;;;;33.4;26;;;;;;;8.76;69.41504;100235.3;;;;
2021/03/02 16:32:21;;;;;;;33.9;27.1;;;;;;;8.25;70.73926;100240.2;;;;
2021/03/02 16:42:20;;;;;;;43.3;28.7;;;;;;;7.8;71.87793;100245;;;;
2021/03/02 16:52:19;;;;;;;25.6;22.5;;;;;;;7.48;71.82617;100250.2;;;;
2021/03/02 17:02:17;;;;;;;30.3;20.8;;;;;;;7.25;72.23633;100251.2;;;;
2021/03/02 17:12:16;;;;;;;36.5;23.8;;;;;;;7.07;72.00586;100263;;;;
2021/03/02 17:22:14;;;;;;;28;22.9;;;;;;;6.72;72.57324;100267.7;;;;
2021/03/02 17:32:13;;;;;;;29.4;23.8;;;;;;;6.26;73.75977;100270.6;;;;
2021/03/02 17:42:11;;;;;;;42.3;27.2;;;;;;;5.89;75.02637;100270.9;;;;
2021/03/02 17:52:09;;;;;;;42.7;32.9;;;;;;;5.52;75.94238;100280.2;;;;
2021/03/02 18:02:07;;;;;;;42.3;29.5;;;;;;;5.25;77.65625;100277.2;;;;
2021/03/02 18:12:06;;;;;;;36.7;29.4;;;;;;;5.04;78.44336;100283.9;;;;
2021/03/02 18:22:04;;;;;;;39.6;31.1;;;;;;;4.74;78.99023;100280.5;;;;
2021/03/02 18:32:03;;;;;;;43.3;29.3;;;;;;;4.64;80.33887;100268.7;;;;
2021/03/02 18:42:00;;;;;;;45.2;32.1;;;;;;;4.76;80.89551;100278.4;;;;
2021/03/02 18:51:59;;;;;;;40.9;29.7;;;;;;;4.6;81.57715;100273.7;;;;
2021/03/02 19:01:57;;;;;;;40.1;30.7;;;;;;;4.5;82.55566;100276.1;;;;
2021/03/02 19:11:55;;;;;;;35.2;30.5;;;;;;;4.15;82.60059;100280.5;;;;
2021/03/02 19:21:53;;;;;;;38.4;30.9;;;;;;;3.91;83.24316;100259;;;;
2021/03/02 19:31:51;;;;;;;39;31.9;;;;;;;3.84;84.3584;100265.4;;;;
2021/03/02 19:41:49;;;;;;;40.4;34.1;;;;;;;3.67;84.78125;100262.6;;;;
2021/03/02 19:51:50;;;;;;;41.3;34.3;;;;;;;3.57;87.11816;100272.9;;;;
2021/03/02 20:01:45;;;;;;;48.2;39.8;;;;;;;3.53;86.87793;100277;;;;
2021/03/02 20:11:44;;;;;;;51.1;35.8;;;;;;;3.46;87.32813;100276.3;;;;
2021/03/02 20:21:41;;;;;;;47.8;35.6;;;;;;;3.35;87.38379;100282.3;;;;
2021/03/02 20:31:39;;;;;;;54.8;38.8;;;;;;;3.34;87.08398;100286.9;;;;
2021/03/02 20:41:38;;;;;;;52.3;38.8;;;;;;;3.1;87.41992;100278.9;;;;
2021/03/02 20:51:35;;;;;;;55.7;35;;;;;;;3.09;87.06445;100298.6;;;;
2021/03/02 21:01:33;;;;;;;51.5;36;;;;;;;3.16;86.70508;100289.5;;;;
2021/03/02 21:11:31;;;;;;;46.3;36.7;;;;;;;3.16;86.39355;100288.7;;;;
2021/03/02 21:21:30;;;;;;;47.4;35.2;;;;;;;3.17;86.81543;100292.9;;;;
2021/03/02 21:31:27;;;;;;;53.6;37.7;;;;;;;2.86;87.09668;100299.9;;;;
2021/03/02 21:41:25;;;;;;;48.1;34.9;;;;;;;2.87;88.26953;100292.8;;;;
2021/03/02 21:51:23;;;;;;;50.3;41.5;;;;;;;3.02;87.4834;100301.3;;;;
2021/03/02 22:01:21;;;;;;;161.5;129.1;;;;;;;2.53;87.31641;100307.3;;;;
2021/03/02 22:11:18;;;;;;;128.5;101.4;;;;;;;2.02;87.54395;100299.3;;;;
2021/03/02 22:21:16;;;;;;;58.4;39.6;;;;;;;1.65;89.08594;100300.1;;;;
2021/03/02 22:31:15;;;;;;;52.4;32.9;;;;;;;1.47;90.06152;100295.4;;;;
2021/03/02 22:41:12;;;;;;;52;38.4;;;;;;;1.39;91.12402;100283.1;;;;
2021/03/02 22:51:10;;;;;;;52.6;38.7;;;;;;;1.39;91.67188;100271.7;;;;
2021/03/02 23:01:07;;;;;;;59.2;37.7;;;;;;;1.39;91.72949;100267.2;;;;
2021/03/02 23:11:05;;;;;;;53.6;35.1;;;;;;;1.35;91.97266;100284.6;;;;
2021/03/02 23:21:03;;;;;;;47.8;35.9;;;;;;;1.3;91.56738;100268.5;;;;
2021/03/02 23:31:01;;;;;;;49.3;34.4;;;;;;;1.17;91.52539;100270.3;;;;
2021/03/02 23:40:58;;;;;;;56.8;39.6;;;;;;;0.93;92.04883;100272.6;;;;
2021/03/02 23:50:56;;;;;;;41.8;32.7;;;;;;;0.85;91.98633;100275.4;;;;
